Woodruff, Wisconsin
Current Conditions -  °F | °C
As of 2:35 AM on Saturday 29 Nov 2014 (Local Time) from KARV Reporting Station
Haze Haze  
Wind Chill:   Ceiling: 500
Heat Index: 19°   Visibility: 5mi
Dew Point: 17°   Wind: 8mph
Humidity: 91%   Direction: 180°S
Pressure: 29.67"   Gusts: NA
Location:  45.9°N, 89.7°W
Report Text: KARV 290835Z AUTO 18007KT 5SM BR OVC005 M07/M08 A2967 RMK AO2 T10711083
Loading
Personal Weather Stations






























Interactive Weather Map New forecast layout! Learn more

10-Day Weather Forecast

Advertisements
Track Severe Weather on mobile